sensor_id;sensor_type;location;lat;lon;timestamp;temperature;humidity
33865;DHT22;20159;51.072;13.526;2023-03-14T00:00:58;12.90;98.30
33865;DHT22;20159;51.072;13.526;2023-03-14T00:03:24;12.90;98.40
33865;DHT22;20159;51.072;13.526;2023-03-14T00:05:49;12.90;98.40
33865;DHT22;20159;51.072;13.526;2023-03-14T00:08:15;12.90;98.40
33865;DHT22;20159;51.072;13.526;2023-03-14T00:10:41;12.90;98.40
33865;DHT22;20159;51.072;13.526;2023-03-14T00:13:07;12.90;98.30
33865;DHT22;20159;51.072;13.526;2023-03-14T00:15:45;12.90;98.30
33865;DHT22;20159;51.072;13.526;2023-03-14T00:18:11;12.80;98.20
33865;DHT22;20159;51.072;13.526;2023-03-14T00:20:37;12.80;98.20
33865;DHT22;20159;51.072;13.526;2023-03-14T00:23:02;12.80;98.20
33865;DHT22;20159;51.072;13.526;2023-03-14T00:25:28;12.70;98.20
33865;DHT22;20159;51.072;13.526;2023-03-14T00:27:53;12.80;98.20
33865;DHT22;20159;51.072;13.526;2023-03-14T00:30:19;12.70;98.20
33865;DHT22;20159;51.072;13.526;2023-03-14T00:32:44;12.70;98.10
33865;DHT22;20159;51.072;13.526;2023-03-14T00:35:10;12.60;98.00
33865;DHT22;20159;51.072;13.526;2023-03-14T00:37:36;12.60;98.00
33865;DHT22;20159;51.072;13.526;2023-03-14T00:40:01;12.50;97.90
33865;DHT22;20159;51.072;13.526;2023-03-14T00:42:27;12.50;98.00
33865;DHT22;20159;51.072;13.526;2023-03-14T00:44:53;12.50;98.00
33865;DHT22;20159;51.072;13.526;2023-03-14T00:47:21;12.40;98.00
33865;DHT22;20159;51.072;13.526;2023-03-14T00:49:47;12.40;98.10
33865;DHT22;20159;51.072;13.526;2023-03-14T00:52:13;12.30;98.10
33865;DHT22;20159;51.072;13.526;2023-03-14T00:54:39;12.40;98.20
33865;DHT22;20159;51.072;13.526;2023-03-14T00:57:04;12.30;98.20
33865;DHT22;20159;51.072;13.526;2023-03-14T00:59:30;12.30;98.20
33865;DHT22;20159;51.072;13.526;2023-03-14T01:01:55;12.30;98.30
33865;DHT22;20159;51.072;13.526;2023-03-14T01:04:33;13.60;98.60
33865;DHT22;20159;51.072;13.526;2023-03-14T01:06:59;12.30;98.40
33865;DHT22;20159;51.072;13.526;2023-03-14T01:09:31;12.30;98.30
33865;DHT22;20159;51.072;13.526;2023-03-14T01:11:57;12.20;98.40
33865;DHT22;20159;51.072;13.526;2023-03-14T01:14:22;12.20;98.50
33865;DHT22;20159;51.072;13.526;2023-03-14T01:16:51;12.20;98.50
33865;DHT22;20159;51.072;13.526;2023-03-14T01:19:16;12.20;98.50
33865;DHT22;20159;51.072;13.526;2023-03-14T01:21:42;12.20;98.60
33865;DHT22;20159;51.072;13.526;2023-03-14T01:24:10;14.60;99.20
33865;DHT22;20159;51.072;13.526;2023-03-14T01:26:36;12.20;98.70
33865;DHT22;20159;51.072;13.526;2023-03-14T01:29:02;12.20;98.90
33865;DHT22;20159;51.072;13.526;2023-03-14T01:31:29;12.20;98.80
33865;DHT22;20159;51.072;13.526;2023-03-14T01:33:55;12.30;98.80
33865;DHT22;20159;51.072;13.526;2023-03-14T01:36:20;12.30;98.90
33865;DHT22;20159;51.072;13.526;2023-03-14T01:38:46;12.30;98.80
33865;DHT22;20159;51.072;13.526;2023-03-14T01:41:20;12.30;98.70
33865;DHT22;20159;51.072;13.526;2023-03-14T01:43:46;12.30;98.70
33865;DHT22;20159;51.072;13.526;2023-03-14T01:46:32;12.30;98.60
33865;DHT22;20159;51.072;13.526;2023-03-14T01:54:22;12.40;98.40
33865;DHT22;20159;51.072;13.526;2023-03-14T01:57:16;12.40;98.30
33865;DHT22;20159;51.072;13.526;2023-03-14T01:59:55;12.40;98.20
33865;DHT22;20159;51.072;13.526;2023-03-14T02:02:23;12.40;98.10
33865;DHT22;20159;51.072;13.526;2023-03-14T02:04:50;12.40;98.00
33865;DHT22;20159;51.072;13.526;2023-03-14T02:07:30;12.40;98.00
33865;DHT22;20159;51.072;13.526;2023-03-14T02:09:59;12.40;97.90
33865;DHT22;20159;51.072;13.526;2023-03-14T02:12:35;12.40;97.90
33865;DHT22;20159;51.072;13.526;2023-03-14T02:15:02;12.40;97.80
33865;DHT22;20159;51.072;13.526;2023-03-14T02:17:27;12.40;97.90
33865;DHT22;20159;51.072;13.526;2023-03-14T02:22:45;12.40;97.70
33865;DHT22;20159;51.072;13.526;2023-03-14T02:25:33;12.50;97.60
33865;DHT22;20159;51.072;13.526;2023-03-14T02:28:01;12.50;97.60
33865;DHT22;20159;51.072;13.526;2023-03-14T02:30:29;12.50;97.50
33865;DHT22;20159;51.072;13.526;2023-03-14T02:32:59;12.50;97.40
33865;DHT22;20159;51.072;13.526;2023-03-14T02:35:29;12.50;97.30
33865;DHT22;20159;51.072;13.526;2023-03-14T02:40:47;12.50;97.00
33865;DHT22;20159;51.072;13.526;2023-03-14T02:43:13;12.60;97.10
33865;DHT22;20159;51.072;13.526;2023-03-14T02:45:43;12.60;96.90
33865;DHT22;20159;51.072;13.526;2023-03-14T02:48:22;12.60;96.70
33865;DHT22;20159;51.072;13.526;2023-03-14T02:50:52;12.60;96.40
33865;DHT22;20159;51.072;13.526;2023-03-14T02:53:21;12.60;96.40
33865;DHT22;20159;51.072;13.526;2023-03-14T02:55:48;12.70;96.00
33865;DHT22;20159;51.072;13.526;2023-03-14T02:58:15;12.70;96.00
33865;DHT22;20159;51.072;13.526;2023-03-14T03:00:40;12.70;95.60
33865;DHT22;20159;51.072;13.526;2023-03-14T03:03:06;12.80;95.60
33865;DHT22;20159;51.072;13.526;2023-03-14T03:05:32;12.80;95.30
33865;DHT22;20159;51.072;13.526;2023-03-14T03:07:58;12.80;95.20
33865;DHT22;20159;51.072;13.526;2023-03-14T03:10:23;12.90;95.10
33865;DHT22;20159;51.072;13.526;2023-03-14T03:12:49;12.90;94.90
33865;DHT22;20159;51.072;13.526;2023-03-14T03:15:15;12.90;94.80
33865;DHT22;20159;51.072;13.526;2023-03-14T03:17:40;12.90;94.60
33865;DHT22;20159;51.072;13.526;2023-03-14T03:20:06;12.90;94.40
33865;DHT22;20159;51.072;13.526;2023-03-14T03:22:35;12.90;94.20
33865;DHT22;20159;51.072;13.526;2023-03-14T03:25:00;12.90;93.80
33865;DHT22;20159;51.072;13.526;2023-03-14T03:27:26;12.90;93.70
33865;DHT22;20159;51.072;13.526;2023-03-14T03:29:51;13.00;93.40
33865;DHT22;20159;51.072;13.526;2023-03-14T03:32:17;12.90;93.00
33865;DHT22;20159;51.072;13.526;2023-03-14T03:34:42;15.70;93.90
33865;DHT22;20159;51.072;13.526;2023-03-14T03:37:08;12.90;93.10
33865;DHT22;20159;51.072;13.526;2023-03-14T03:39:33;12.90;92.80
33865;DHT22;20159;51.072;13.526;2023-03-14T03:41:59;12.90;92.60
33865;DHT22;20159;51.072;13.526;2023-03-14T03:44:24;12.90;92.80
33865;DHT22;20159;51.072;13.526;2023-03-14T03:46:50;12.90;92.60
33865;DHT22;20159;51.072;13.526;2023-03-14T03:49:15;12.90;92.50
33865;DHT22;20159;51.072;13.526;2023-03-14T03:51:41;12.90;92.30
33865;DHT22;20159;51.072;13.526;2023-03-14T03:54:07;12.90;92.10
33865;DHT22;20159;51.072;13.526;2023-03-14T03:56:32;12.90;92.20
33865;DHT22;20159;51.072;13.526;2023-03-14T03:58:58;12.80;92.20
33865;DHT22;20159;51.072;13.526;2023-03-14T04:01:23;12.90;92.10
33865;DHT22;20159;51.072;13.526;2023-03-14T04:03:49;12.80;92.10
33865;DHT22;20159;51.072;13.526;2023-03-14T04:06:14;12.80;91.80
33865;DHT22;20159;51.072;13.526;2023-03-14T04:08:40;12.80;91.90
33865;DHT22;20159;51.072;13.526;2023-03-14T04:11:06;12.80;91.80
33865;DHT22;20159;51.072;13.526;2023-03-14T04:13:32;12.80;91.60
33865;DHT22;20159;51.072;13.526;2023-03-14T04:15:58;12.80;91.50
33865;DHT22;20159;51.072;13.526;2023-03-14T04:18:24;12.80;91.40
33865;DHT22;20159;51.072;13.526;2023-03-14T04:20:57;12.80;91.40
33865;DHT22;20159;51.072;13.526;2023-03-14T04:23:23;12.70;91.10
33865;DHT22;20159;51.072;13.526;2023-03-14T04:25:53;12.80;91.00
33865;DHT22;20159;51.072;13.526;2023-03-14T04:28:19;12.70;90.90
33865;DHT22;20159;51.072;13.526;2023-03-14T04:30:44;12.80;91.00
33865;DHT22;20159;51.072;13.526;2023-03-14T04:33:10;12.80;90.80
33865;DHT22;20159;51.072;13.526;2023-03-14T04:35:37;12.80;90.50
33865;DHT22;20159;51.072;13.526;2023-03-14T04:38:03;12.80;90.80
33865;DHT22;20159;51.072;13.526;2023-03-14T04:40:28;12.80;90.80
33865;DHT22;20159;51.072;13.526;2023-03-14T04:42:54;12.70;90.70
33865;DHT22;20159;51.072;13.526;2023-03-14T04:45:19;12.70;90.60
33865;DHT22;20159;51.072;13.526;2023-03-14T04:47:45;12.70;90.40
33865;DHT22;20159;51.072;13.526;2023-03-14T04:50:11;12.70;90.40
33865;DHT22;20159;51.072;13.526;2023-03-14T04:52:36;12.70;90.10
33865;DHT22;20159;51.072;13.526;2023-03-14T04:55:02;12.70;90.30
33865;DHT22;20159;51.072;13.526;2023-03-14T04:57:27;12.70;90.30
33865;DHT22;20159;51.072;13.526;2023-03-14T04:59:53;12.60;90.10
33865;DHT22;20159;51.072;13.526;2023-03-14T05:02:18;12.60;90.40
33865;DHT22;20159;51.072;13.526;2023-03-14T05:04:44;12.60;90.20
33865;DHT22;20159;51.072;13.526;2023-03-14T05:07:09;12.60;90.30
33865;DHT22;20159;51.072;13.526;2023-03-14T05:09:35;12.60;90.30
33865;DHT22;20159;51.072;13.526;2023-03-14T05:12:01;12.50;90.20
33865;DHT22;20159;51.072;13.526;2023-03-14T05:14:26;12.50;90.20
33865;DHT22;20159;51.072;13.526;2023-03-14T05:16:52;12.50;90.10
33865;DHT22;20159;51.072;13.526;2023-03-14T05:19:17;12.50;90.20
33865;DHT22;20159;51.072;13.526;2023-03-14T05:21:42;12.50;90.30
33865;DHT22;20159;51.072;13.526;2023-03-14T05:24:08;12.50;90.20
33865;DHT22;20159;51.072;13.526;2023-03-14T05:26:33;12.50;90.30
33865;DHT22;20159;51.072;13.526;2023-03-14T05:28:59;12.50;90.20
33865;DHT22;20159;51.072;13.526;2023-03-14T05:31:24;12.50;90.10
33865;DHT22;20159;51.072;13.526;2023-03-14T05:33:50;12.50;90.30
33865;DHT22;20159;51.072;13.526;2023-03-14T05:36:15;12.50;90.30
33865;DHT22;20159;51.072;13.526;2023-03-14T05:38:41;12.50;90.30
33865;DHT22;20159;51.072;13.526;2023-03-14T05:41:06;12.50;90.20
33865;DHT22;20159;51.072;13.526;2023-03-14T05:43:32;12.40;90.20
33865;DHT22;20159;51.072;13.526;2023-03-14T05:45:57;12.50;90.40
33865;DHT22;20159;51.072;13.526;2023-03-14T05:48:23;12.50;90.30
33865;DHT22;20159;51.072;13.526;2023-03-14T05:50:54;12.40;90.00
33865;DHT22;20159;51.072;13.526;2023-03-14T05:53:20;12.40;90.20
33865;DHT22;20159;51.072;13.526;2023-03-14T05:55:45;12.40;90.40
33865;DHT22;20159;51.072;13.526;2023-03-14T05:58:11;12.40;90.30
33865;DHT22;20159;51.072;13.526;2023-03-14T06:00:36;12.40;90.10
33865;DHT22;20159;51.072;13.526;2023-03-14T06:03:02;12.40;90.00
33865;DHT22;20159;51.072;13.526;2023-03-14T06:05:27;12.40;90.20
33865;DHT22;20159;51.072;13.526;2023-03-14T06:07:53;12.40;90.30
33865;DHT22;20159;51.072;13.526;2023-03-14T06:10:18;12.40;90.30
33865;DHT22;20159;51.072;13.526;2023-03-14T06:12:44;12.40;90.60
33865;DHT22;20159;51.072;13.526;2023-03-14T06:15:10;12.50;90.40
33865;DHT22;20159;51.072;13.526;2023-03-14T06:17:35;12.50;90.30
33865;DHT22;20159;51.072;13.526;2023-03-14T06:20:01;12.50;90.20
33865;DHT22;20159;51.072;13.526;2023-03-14T06:22:26;12.50;90.20
33865;DHT22;20159;51.072;13.526;2023-03-14T06:24:52;12.50;90.30
33865;DHT22;20159;51.072;13.526;2023-03-14T06:27:17;12.60;90.20
33865;DHT22;20159;51.072;13.526;2023-03-14T06:29:43;12.60;90.10
33865;DHT22;20159;51.072;13.526;2023-03-14T06:32:08;12.60;90.20
33865;DHT22;20159;51.072;13.526;2023-03-14T06:34:34;12.60;90.10
33865;DHT22;20159;51.072;13.526;2023-03-14T06:36:59;12.70;90.20
33865;DHT22;20159;51.072;13.526;2023-03-14T06:39:25;12.70;90.00
33865;DHT22;20159;51.072;13.526;2023-03-14T06:41:50;12.80;89.80
33865;DHT22;20159;51.072;13.526;2023-03-14T06:44:16;12.80;89.50
33865;DHT22;20159;51.072;13.526;2023-03-14T06:46:41;12.80;89.80
33865;DHT22;20159;51.072;13.526;2023-03-14T06:49:07;12.90;90.00
33865;DHT22;20159;51.072;13.526;2023-03-14T06:51:33;12.90;89.70
33865;DHT22;20159;51.072;13.526;2023-03-14T06:53:59;13.00;90.00
33865;DHT22;20159;51.072;13.526;2023-03-14T06:56:24;13.00;89.50
33865;DHT22;20159;51.072;13.526;2023-03-14T06:58:50;13.10;89.20
33865;DHT22;20159;51.072;13.526;2023-03-14T07:01:25;13.20;88.90
33865;DHT22;20159;51.072;13.526;2023-03-14T07:03:52;13.20;89.00
33865;DHT22;20159;51.072;13.526;2023-03-14T07:06:17;13.30;88.90
33865;DHT22;20159;51.072;13.526;2023-03-14T07:08:43;13.30;88.70
33865;DHT22;20159;51.072;13.526;2023-03-14T07:11:08;13.40;88.80
33865;DHT22;20159;51.072;13.526;2023-03-14T07:13:36;13.40;88.60
33865;DHT22;20159;51.072;13.526;2023-03-14T07:16:02;13.50;88.80
33865;DHT22;20159;51.072;13.526;2023-03-14T07:18:28;13.50;88.30
33865;DHT22;20159;51.072;13.526;2023-03-14T07:20:53;13.60;88.40
33865;DHT22;20159;51.072;13.526;2023-03-14T07:23:18;13.60;87.80
33865;DHT22;20159;51.072;13.526;2023-03-14T07:25:44;13.60;87.90
33865;DHT22;20159;51.072;13.526;2023-03-14T07:28:09;13.60;87.70
33865;DHT22;20159;51.072;13.526;2023-03-14T07:30:35;13.70;87.70
33865;DHT22;20159;51.072;13.526;2023-03-14T07:33:00;13.70;87.60
33865;DHT22;20159;51.072;13.526;2023-03-14T07:35:26;13.70;87.00
33865;DHT22;20159;51.072;13.526;2023-03-14T07:37:51;13.70;87.20
33865;DHT22;20159;51.072;13.526;2023-03-14T07:40:17;13.70;87.00
33865;DHT22;20159;51.072;13.526;2023-03-14T07:42:43;13.70;86.60
33865;DHT22;20159;51.072;13.526;2023-03-14T07:45:09;13.70;86.90
33865;DHT22;20159;51.072;13.526;2023-03-14T07:47:35;13.80;86.50
33865;DHT22;20159;51.072;13.526;2023-03-14T07:50:01;13.80;87.10
33865;DHT22;20159;51.072;13.526;2023-03-14T07:52:27;13.80;87.40
33865;DHT22;20159;51.072;13.526;2023-03-14T07:54:53;13.80;87.50
33865;DHT22;20159;51.072;13.526;2023-03-14T07:57:18;13.80;87.10
33865;DHT22;20159;51.072;13.526;2023-03-14T07:59:44;13.80;86.50
33865;DHT22;20159;51.072;13.526;2023-03-14T08:02:12;13.90;87.10
33865;DHT22;20159;51.072;13.526;2023-03-14T08:04:39;13.90;87.00
33865;DHT22;20159;51.072;13.526;2023-03-14T08:07:04;13.90;86.60
33865;DHT22;20159;51.072;13.526;2023-03-14T08:09:30;13.90;86.50
33865;DHT22;20159;51.072;13.526;2023-03-14T08:11:55;13.90;86.80
33865;DHT22;20159;51.072;13.526;2023-03-14T08:14:21;14.00;87.00
33865;DHT22;20159;51.072;13.526;2023-03-14T08:16:49;14.10;87.40
33865;DHT22;20159;51.072;13.526;2023-03-14T08:19:14;14.10;86.70
33865;DHT22;20159;51.072;13.526;2023-03-14T08:21:40;14.20;86.30
33865;DHT22;20159;51.072;13.526;2023-03-14T08:24:06;14.40;85.10
33865;DHT22;20159;51.072;13.526;2023-03-14T08:26:31;14.50;85.90
33865;DHT22;20159;51.072;13.526;2023-03-14T08:28:57;14.60;85.20
33865;DHT22;20159;51.072;13.526;2023-03-14T08:31:22;14.70;83.90
33865;DHT22;20159;51.072;13.526;2023-03-14T08:33:48;14.80;83.40
33865;DHT22;20159;51.072;13.526;2023-03-14T08:36:13;14.90;83.20
33865;DHT22;20159;51.072;13.526;2023-03-14T08:38:39;15.00;84.30
33865;DHT22;20159;51.072;13.526;2023-03-14T08:41:08;15.00;84.30
33865;DHT22;20159;51.072;13.526;2023-03-14T08:43:34;15.20;84.00
33865;DHT22;20159;51.072;13.526;2023-03-14T08:46:01;15.30;83.60
33865;DHT22;20159;51.072;13.526;2023-03-14T08:48:27;15.40;82.50
33865;DHT22;20159;51.072;13.526;2023-03-14T08:50:56;15.40;83.00
33865;DHT22;20159;51.072;13.526;2023-03-14T08:53:21;15.50;81.90
33865;DHT22;20159;51.072;13.526;2023-03-14T08:55:52;15.60;81.50
33865;DHT22;20159;51.072;13.526;2023-03-14T08:58:18;15.70;79.90
33865;DHT22;20159;51.072;13.526;2023-03-14T09:00:44;15.80;80.80
33865;DHT22;20159;51.072;13.526;2023-03-14T09:03:09;15.90;80.50
33865;DHT22;20159;51.072;13.526;2023-03-14T09:05:35;16.00;80.40
33865;DHT22;20159;51.072;13.526;2023-03-14T09:08:01;16.10;79.40
33865;DHT22;20159;51.072;13.526;2023-03-14T09:10:26;16.20;80.20
33865;DHT22;20159;51.072;13.526;2023-03-14T09:12:52;16.20;79.10
33865;DHT22;20159;51.072;13.526;2023-03-14T09:15:17;16.30;79.40
33865;DHT22;20159;51.072;13.526;2023-03-14T09:17:43;16.30;78.20
33865;DHT22;20159;51.072;13.526;2023-03-14T09:20:10;16.40;80.60
33865;DHT22;20159;51.072;13.526;2023-03-14T09:22:36;16.40;79.20
33865;DHT22;20159;51.072;13.526;2023-03-14T09:25:03;16.50;78.70
33865;DHT22;20159;51.072;13.526;2023-03-14T09:27:28;16.60;77.00
33865;DHT22;20159;51.072;13.526;2023-03-14T09:29:54;16.60;76.90
33865;DHT22;20159;51.072;13.526;2023-03-14T09:32:19;16.60;76.40
33865;DHT22;20159;51.072;13.526;2023-03-14T09:34:45;16.60;76.30
33865;DHT22;20159;51.072;13.526;2023-03-14T09:37:11;16.60;76.20
33865;DHT22;20159;51.072;13.526;2023-03-14T09:39:36;16.60;75.50
33865;DHT22;20159;51.072;13.526;2023-03-14T09:42:04;16.50;75.20
33865;DHT22;20159;51.072;13.526;2023-03-14T09:44:33;16.40;74.90
33865;DHT22;20159;51.072;13.526;2023-03-14T09:47:04;16.30;74.70
33865;DHT22;20159;51.072;13.526;2023-03-14T09:49:42;16.20;74.20
33865;DHT22;20159;51.072;13.526;2023-03-14T09:52:21;16.10;74.70
33865;DHT22;20159;51.072;13.526;2023-03-14T09:54:53;16.00;74.50
33865;DHT22;20159;51.072;13.526;2023-03-14T09:57:23;15.90;74.80
33865;DHT22;20159;51.072;13.526;2023-03-14T09:59:50;15.80;75.20
33865;DHT22;20159;51.072;13.526;2023-03-14T10:02:25;15.70;75.40
33865;DHT22;20159;51.072;13.526;2023-03-14T10:04:52;15.70;75.70
33865;DHT22;20159;51.072;13.526;2023-03-14T10:07:26;15.60;75.70
33865;DHT22;20159;51.072;13.526;2023-03-14T10:09:53;15.50;76.30
33865;DHT22;20159;51.072;13.526;2023-03-14T10:12:19;15.50;76.60
33865;DHT22;20159;51.072;13.526;2023-03-14T10:14:48;15.40;75.90
33865;DHT22;20159;51.072;13.526;2023-03-14T10:17:15;15.40;76.20
33865;DHT22;20159;51.072;13.526;2023-03-14T10:19:55;15.40;76.40
33865;DHT22;20159;51.072;13.526;2023-03-14T10:22:22;15.40;76.20
33865;DHT22;20159;51.072;13.526;2023-03-14T10:24:56;15.30;76.50
33865;DHT22;20159;51.072;13.526;2023-03-14T10:27:32;15.30;76.40
33865;DHT22;20159;51.072;13.526;2023-03-14T10:30:07;15.30;76.80
33865;DHT22;20159;51.072;13.526;2023-03-14T10:32:38;15.30;76.60
33865;DHT22;20159;51.072;13.526;2023-03-14T10:37:57;15.30;77.20
33865;DHT22;20159;51.072;13.526;2023-03-14T10:40:30;15.20;76.80
33865;DHT22;20159;51.072;13.526;2023-03-14T10:42:59;15.30;75.90
33865;DHT22;20159;51.072;13.526;2023-03-14T10:45:34;15.30;76.10
33865;DHT22;20159;51.072;13.526;2023-03-14T10:48:29;15.30;76.60
33865;DHT22;20159;51.072;13.526;2023-03-14T10:51:07;15.30;76.60
33865;DHT22;20159;51.072;13.526;2023-03-14T10:56:11;15.40;77.00
33865;DHT22;20159;51.072;13.526;2023-03-14T10:58:43;15.40;76.90
33865;DHT22;20159;51.072;13.526;2023-03-14T11:03:42;15.50;76.80
33865;DHT22;20159;51.072;13.526;2023-03-14T11:06:17;15.40;76.40
33865;DHT22;20159;51.072;13.526;2023-03-14T11:08:51;15.60;76.60
33865;DHT22;20159;51.072;13.526;2023-03-14T11:11:29;15.60;76.20
33865;DHT22;20159;51.072;13.526;2023-03-14T11:19:39;15.80;76.50
33865;DHT22;20159;51.072;13.526;2023-03-14T11:22:23;15.80;76.50
33865;DHT22;20159;51.072;13.526;2023-03-14T11:28:09;16.20;74.20
33865;DHT22;20159;51.072;13.526;2023-03-14T11:30:52;16.50;76.30
33865;DHT22;20159;51.072;13.526;2023-03-14T11:33:27;16.70;75.90
33865;DHT22;20159;51.072;13.526;2023-03-14T11:36:10;16.80;74.50
33865;DHT22;20159;51.072;13.526;2023-03-14T11:38:37;17.00;75.10
33865;DHT22;20159;51.072;13.526;2023-03-14T11:41:08;17.10;74.00
33865;DHT22;20159;51.072;13.526;2023-03-14T11:43:38;17.30;73.20
33865;DHT22;20159;51.072;13.526;2023-03-14T11:46:16;17.40;72.60
33865;DHT22;20159;51.072;13.526;2023-03-14T11:48:50;17.50;71.40
33865;DHT22;20159;51.072;13.526;2023-03-14T11:51:35;17.50;72.60
33865;DHT22;20159;51.072;13.526;2023-03-14T11:54:14;17.60;70.30
33865;DHT22;20159;51.072;13.526;2023-03-14T11:56:48;17.70;72.20
33865;DHT22;20159;51.072;13.526;2023-03-14T11:59:19;17.90;71.70
33865;DHT22;20159;51.072;13.526;2023-03-14T12:01:53;18.10;71.80
33865;DHT22;20159;51.072;13.526;2023-03-14T12:04:53;18.30;71.30
33865;DHT22;20159;51.072;13.526;2023-03-14T12:07:26;18.60;70.90
33865;DHT22;20159;51.072;13.526;2023-03-14T12:09:55;18.90;70.70
33865;DHT22;20159;51.072;13.526;2023-03-14T12:12:24;19.10;70.10
33865;DHT22;20159;51.072;13.526;2023-03-14T12:14:58;19.30;69.60
33865;DHT22;20159;51.072;13.526;2023-03-14T12:17:27;19.50;69.50
33865;DHT22;20159;51.072;13.526;2023-03-14T12:20:20;19.60;69.10
33865;DHT22;20159;51.072;13.526;2023-03-14T12:23:04;19.70;68.60
33865;DHT22;20159;51.072;13.526;2023-03-14T12:25:32;19.80;65.60
33865;DHT22;20159;51.072;13.526;2023-03-14T12:28:12;19.70;65.50
33865;DHT22;20159;51.072;13.526;2023-03-14T12:30:41;19.70;65.60
33865;DHT22;20159;51.072;13.526;2023-03-14T12:35:41;19.70;66.50
33865;DHT22;20159;51.072;13.526;2023-03-14T12:38:14;19.60;65.00
33865;DHT22;20159;51.072;13.526;2023-03-14T12:43:28;19.50;65.20
33865;DHT22;20159;51.072;13.526;2023-03-14T12:48:39;19.50;63.40
33865;DHT22;20159;51.072;13.526;2023-03-14T12:54:25;19.50;64.80
33865;DHT22;20159;51.072;13.526;2023-03-14T12:59:50;19.60;62.50
33865;DHT22;20159;51.072;13.526;2023-03-14T13:02:43;19.60;62.70
33865;DHT22;20159;51.072;13.526;2023-03-14T13:05:22;19.60;62.90
33865;DHT22;20159;51.072;13.526;2023-03-14T13:10:24;19.40;63.30
33865;DHT22;20159;51.072;13.526;2023-03-14T13:13:03;19.30;62.80
33865;DHT22;20159;51.072;13.526;2023-03-14T13:15:42;21.20;63.00
33865;DHT22;20159;51.072;13.526;2023-03-14T13:18:34;19.10;63.10
33865;DHT22;20159;51.072;13.526;2023-03-14T13:21:07;19.00;63.70
33865;DHT22;20159;51.072;13.526;2023-03-14T13:23:37;18.90;63.80
33865;DHT22;20159;51.072;13.526;2023-03-14T13:26:14;18.80;64.50
33865;DHT22;20159;51.072;13.526;2023-03-14T13:28:42;18.80;64.20
33865;DHT22;20159;51.072;13.526;2023-03-14T13:31:26;18.80;64.50
33865;DHT22;20159;51.072;13.526;2023-03-14T13:34:02;18.70;63.60
33865;DHT22;20159;51.072;13.526;2023-03-14T13:36:30;18.70;63.30
33865;DHT22;20159;51.072;13.526;2023-03-14T13:39:10;18.70;64.90
33865;DHT22;20159;51.072;13.526;2023-03-14T13:41:45;18.60;65.20
33865;DHT22;20159;51.072;13.526;2023-03-14T13:44:17;18.70;65.10
33865;DHT22;20159;51.072;13.526;2023-03-14T13:46:44;18.60;64.10
33865;DHT22;20159;51.072;13.526;2023-03-14T13:49:15;18.60;65.20
33865;DHT22;20159;51.072;13.526;2023-03-14T13:51:44;18.50;64.60
33865;DHT22;20159;51.072;13.526;2023-03-14T13:54:15;18.50;64.90
33865;DHT22;20159;51.072;13.526;2023-03-14T13:56:40;18.50;64.40
33865;DHT22;20159;51.072;13.526;2023-03-14T13:59:28;18.40;64.30
33865;DHT22;20159;51.072;13.526;2023-03-14T14:01:54;18.40;64.10
33865;DHT22;20159;51.072;13.526;2023-03-14T14:04:24;18.30;64.80
33865;DHT22;20159;51.072;13.526;2023-03-14T14:06:54;18.20;63.40
33865;DHT22;20159;51.072;13.526;2023-03-14T14:09:24;18.10;64.60
33865;DHT22;20159;51.072;13.526;2023-03-14T14:11:55;18.10;66.30
33865;DHT22;20159;51.072;13.526;2023-03-14T14:17:12;18.30;65.50
33865;DHT22;20159;51.072;13.526;2023-03-14T14:19:39;18.40;66.00
33865;DHT22;20159;51.072;13.526;2023-03-14T14:22:07;18.60;65.20
33865;DHT22;20159;51.072;13.526;2023-03-14T14:24:34;18.70;64.60
33865;DHT22;20159;51.072;13.526;2023-03-14T14:27:12;18.80;63.70
33865;DHT22;20159;51.072;13.526;2023-03-14T14:29:40;18.90;63.10
33865;DHT22;20159;51.072;13.526;2023-03-14T14:34:57;19.00;62.90
33865;DHT22;20159;51.072;13.526;2023-03-14T14:37:28;19.00;62.50
33865;DHT22;20159;51.072;13.526;2023-03-14T14:39:59;19.00;61.10
33865;DHT22;20159;51.072;13.526;2023-03-14T14:42:30;19.00;61.50
33865;DHT22;20159;51.072;13.526;2023-03-14T14:44:57;18.90;61.90
33865;DHT22;20159;51.072;13.526;2023-03-14T14:47:25;18.80;62.20
33865;DHT22;20159;51.072;13.526;2023-03-14T14:49:53;18.60;61.90
33865;DHT22;20159;51.072;13.526;2023-03-14T14:52:41;18.50;62.30
33865;DHT22;20159;51.072;13.526;2023-03-14T14:55:18;18.40;61.20
33865;DHT22;20159;51.072;13.526;2023-03-14T14:57:53;18.20;61.80
33865;DHT22;20159;51.072;13.526;2023-03-14T15:00:26;18.10;63.00
33865;DHT22;20159;51.072;13.526;2023-03-14T15:03:03;18.10;64.10
33865;DHT22;20159;51.072;13.526;2023-03-14T15:05:33;18.10;64.50
33865;DHT22;20159;51.072;13.526;2023-03-14T15:08:10;18.10;63.70
33865;DHT22;20159;51.072;13.526;2023-03-14T15:10:38;18.10;63.00
33865;DHT22;20159;51.072;13.526;2023-03-14T15:13:04;18.10;63.90
33865;DHT22;20159;51.072;13.526;2023-03-14T15:15:30;18.10;63.00
33865;DHT22;20159;51.072;13.526;2023-03-14T15:18:21;18.20;62.90
33865;DHT22;20159;51.072;13.526;2023-03-14T15:21:09;18.10;62.70
33865;DHT22;20159;51.072;13.526;2023-03-14T15:23:33;18.10;62.80
33865;DHT22;20159;51.072;13.526;2023-03-14T15:25:58;18.10;63.10
33865;DHT22;20159;51.072;13.526;2023-03-14T15:28:26;18.00;62.30
33865;DHT22;20159;51.072;13.526;2023-03-14T15:30:54;17.90;63.60
33865;DHT22;20159;51.072;13.526;2023-03-14T15:33:21;17.80;63.00
33865;DHT22;20159;51.072;13.526;2023-03-14T15:35:47;17.60;63.30
33865;DHT22;20159;51.072;13.526;2023-03-14T15:38:17;17.50;64.40
33865;DHT22;20159;51.072;13.526;2023-03-14T15:40:45;17.40;64.60
33865;DHT22;20159;51.072;13.526;2023-03-14T15:43:10;17.30;64.60
33865;DHT22;20159;51.072;13.526;2023-03-14T15:45:36;17.20;64.80
33865;DHT22;20159;51.072;13.526;2023-03-14T15:48:03;17.10;65.00
33865;DHT22;20159;51.072;13.526;2023-03-14T15:50:29;17.00;65.50
33865;DHT22;20159;51.072;13.526;2023-03-14T15:52:54;16.90;65.30
33865;DHT22;20159;51.072;13.526;2023-03-14T15:55:21;16.80;66.00
33865;DHT22;20159;51.072;13.526;2023-03-14T15:57:47;16.70;66.10
33865;DHT22;20159;51.072;13.526;2023-03-14T16:00:15;16.60;66.60
33865;DHT22;20159;51.072;13.526;2023-03-14T16:02:47;16.50;66.80
33865;DHT22;20159;51.072;13.526;2023-03-14T16:05:13;16.40;67.30
33865;DHT22;20159;51.072;13.526;2023-03-14T16:07:39;16.30;67.50
33865;DHT22;20159;51.072;13.526;2023-03-14T16:10:06;16.20;67.80
33865;DHT22;20159;51.072;13.526;2023-03-14T16:12:32;16.10;68.10
33865;DHT22;20159;51.072;13.526;2023-03-14T16:14:58;16.00;68.70